createdAt,value
2022-07-29T00:00:59.914Z,1005.64
2022-07-29T00:01:59.898Z,1005.59
2022-07-29T00:02:59.884Z,1005.61
2022-07-29T00:03:59.887Z,1005.55
2022-07-29T00:04:59.869Z,1005.51
2022-07-29T00:05:59.852Z,1005.49
2022-07-29T00:06:59.848Z,1005.47
2022-07-29T00:07:59.833Z,1005.42
2022-07-29T00:08:59.823Z,1005.44
2022-07-29T00:09:59.821Z,1005.38
2022-07-29T00:10:59.822Z,1005.41
2022-07-29T00:11:59.800Z,1005.38
2022-07-29T00:12:59.781Z,1005.29
2022-07-29T00:13:59.769Z,1005.33
2022-07-29T00:14:59.770Z,1005.33
2022-07-29T00:15:59.749Z,1005.38
2022-07-29T00:16:59.737Z,1005.29
2022-07-29T00:17:59.734Z,1005.32
2022-07-29T00:18:59.723Z,1005.24
2022-07-29T00:19:59.714Z,1005.27
2022-07-29T00:20:59.722Z,1005.23
2022-07-29T00:21:59.693Z,1005.23
2022-07-29T00:22:59.675Z,1005.27
2022-07-29T00:23:59.662Z,1005.24
2022-07-29T00:24:59.656Z,1005.25
2022-07-29T00:25:59.648Z,1005.25
2022-07-29T00:26:59.640Z,1005.22
2022-07-29T00:27:59.625Z,1005.23
2022-07-29T00:28:59.610Z,1005.19
2022-07-29T00:29:59.602Z,1005.17
2022-07-29T00:30:59.609Z,1005.2
2022-07-29T00:31:59.579Z,1005.13
2022-07-29T00:32:59.569Z,1005.16
2022-07-29T00:33:59.572Z,1005.16
2022-07-29T00:34:59.545Z,1005.15
2022-07-29T00:35:59.542Z,1005.1
2022-07-29T00:36:59.544Z,1005.08
2022-07-29T00:37:59.517Z,1005.1
2022-07-29T00:38:59.507Z,1005.07
2022-07-29T00:39:59.500Z,1005.04
2022-07-29T00:40:59.484Z,1005.05
2022-07-29T00:41:59.464Z,1005.06
2022-07-29T00:42:59.458Z,1005.06
2022-07-29T00:43:59.449Z,1005.06
2022-07-29T00:44:59.439Z,1005.08
2022-07-29T00:45:59.421Z,1005.02
2022-07-29T00:46:59.422Z,1005.07
2022-07-29T00:47:59.423Z,1005.02
2022-07-29T00:48:59.418Z,1005.05
2022-07-29T00:49:59.385Z,1005.05
2022-07-29T00:50:59.378Z,1005.07
2022-07-29T00:51:59.362Z,1005.01
2022-07-29T00:52:59.356Z,1004.98
2022-07-29T00:53:59.340Z,1005.02
2022-07-29T00:54:59.332Z,1005.01
2022-07-29T00:55:59.318Z,1004.98
2022-07-29T00:56:59.324Z,1004.98
2022-07-29T00:57:59.328Z,1004.99
2022-07-29T00:58:59.291Z,1004.86
2022-07-29T00:59:59.291Z,1004.94
2022-07-29T01:00:59.276Z,1004.86
2022-07-29T01:01:59.265Z,1004.91
2022-07-29T01:02:59.259Z,1004.91
2022-07-29T01:03:59.258Z,1004.94
2022-07-29T01:04:59.231Z,1004.86
2022-07-29T01:05:59.219Z,1004.86
2022-07-29T01:06:59.224Z,1004.84
2022-07-29T01:07:59.205Z,1004.85
2022-07-29T01:08:59.193Z,1004.9
2022-07-29T01:09:59.175Z,1004.95
2022-07-29T01:10:59.177Z,1004.88
2022-07-29T01:11:59.155Z,1004.85
2022-07-29T01:12:59.161Z,1004.83
2022-07-29T01:13:59.142Z,1004.81
2022-07-29T01:14:59.132Z,1004.85
2022-07-29T01:15:59.129Z,1004.77
2022-07-29T01:16:59.110Z,1004.78
2022-07-29T01:17:59.090Z,1004.78
2022-07-29T01:18:59.083Z,1004.79
2022-07-29T01:19:59.075Z,1004.79
2022-07-29T01:20:59.063Z,1004.85
2022-07-29T01:21:59.054Z,1004.83
2022-07-29T01:22:59.043Z,1004.86
2022-07-29T01:23:59.033Z,1004.83
2022-07-29T01:24:59.020Z,1004.86
2022-07-29T01:25:59.006Z,1004.78
2022-07-29T01:26:58.998Z,1004.81
2022-07-29T01:27:58.988Z,1004.8
2022-07-29T01:28:58.981Z,1004.74
2022-07-29T01:29:58.973Z,1004.77
2022-07-29T01:30:58.960Z,1004.72
2022-07-29T01:31:58.949Z,1004.71
2022-07-29T01:32:58.937Z,1004.72
2022-07-29T01:33:58.929Z,1004.69
2022-07-29T01:34:58.910Z,1004.73
2022-07-29T01:35:58.909Z,1004.71
2022-07-29T01:36:58.898Z,1004.71
2022-07-29T01:37:58.885Z,1004.67
2022-07-29T01:38:58.874Z,1004.7
2022-07-29T01:39:58.863Z,1004.7
2022-07-29T01:40:58.853Z,1004.68
2022-07-29T01:41:58.897Z,1004.67
2022-07-29T01:42:58.838Z,1004.65
2022-07-29T01:43:58.821Z,1004.67
2022-07-29T01:44:58.815Z,1004.68
2022-07-29T01:45:58.797Z,1004.6
2022-07-29T01:46:58.794Z,1004.66
2022-07-29T01:47:58.780Z,1004.68
2022-07-29T01:48:58.765Z,1004.66
2022-07-29T01:49:58.761Z,1004.55
2022-07-29T01:50:58.809Z,1004.6
2022-07-29T01:51:58.722Z,1004.57
2022-07-29T01:52:58.715Z,1004.54
2022-07-29T01:53:58.701Z,1004.54
2022-07-29T01:54:58.690Z,1004.55
2022-07-29T01:55:58.691Z,1004.48
2022-07-29T01:56:58.673Z,1004.52
2022-07-29T01:57:58.660Z,1004.57
2022-07-29T01:58:58.650Z,1004.53
2022-07-29T01:59:58.639Z,1004.55
2022-07-29T02:00:58.634Z,1004.44
2022-07-29T02:01:58.639Z,1004.49
2022-07-29T02:02:58.614Z,1004.5
2022-07-29T02:03:58.596Z,1004.49
2022-07-29T02:04:58.601Z,1004.42
2022-07-29T02:05:58.590Z,1004.44
2022-07-29T02:06:58.573Z,1004.43
2022-07-29T02:07:58.573Z,1004.46
2022-07-29T02:08:58.561Z,1004.47
2022-07-29T02:09:58.556Z,1004.53
2022-07-29T02:10:58.547Z,1004.49
2022-07-29T02:11:58.529Z,1004.52
2022-07-29T02:12:58.528Z,1004.55
2022-07-29T02:13:58.508Z,1004.52
2022-07-29T02:14:58.502Z,1004.51
2022-07-29T02:15:58.476Z,1004.53
2022-07-29T02:16:58.471Z,1004.55
2022-07-29T02:17:58.456Z,1004.49
2022-07-29T02:18:58.451Z,1004.46
2022-07-29T02:19:58.445Z,1004.45
2022-07-29T02:20:58.438Z,1004.4
2022-07-29T02:21:58.412Z,1004.42
2022-07-29T02:22:58.406Z,1004.41
2022-07-29T02:23:58.395Z,1004.37
2022-07-29T02:24:58.386Z,1004.35
2022-07-29T02:25:58.379Z,1004.36
2022-07-29T02:26:58.360Z,1004.34
2022-07-29T02:27:58.350Z,1004.33
2022-07-29T02:28:58.347Z,1004.31
2022-07-29T02:29:58.336Z,1004.28
2022-07-29T02:30:58.326Z,1004.34
2022-07-29T02:31:58.311Z,1004.31
2022-07-29T02:32:58.316Z,1004.33
2022-07-29T02:33:58.289Z,1004.3
2022-07-29T02:34:58.299Z,1004.32
2022-07-29T02:35:58.268Z,1004.32
2022-07-29T02:36:58.259Z,1004.32
2022-07-29T02:37:58.260Z,1004.38
2022-07-29T02:38:58.257Z,1004.39
2022-07-29T02:39:58.230Z,1004.29
2022-07-29T02:40:58.216Z,1004.33
2022-07-29T02:41:58.201Z,1004.29
2022-07-29T02:42:58.195Z,1004.29
2022-07-29T02:43:58.204Z,1004.33
2022-07-29T02:44:58.177Z,1004.34
2022-07-29T02:45:58.162Z,1004.36
2022-07-29T02:46:58.158Z,1004.34
2022-07-29T02:47:58.137Z,1004.38
2022-07-29T02:48:58.132Z,1004.29
2022-07-29T02:49:58.132Z,1004.36
2022-07-29T02:50:58.114Z,1004.35
2022-07-29T02:51:58.101Z,1004.31
2022-07-29T02:52:58.089Z,1004.28
2022-07-29T02:53:58.096Z,1004.27
2022-07-29T02:54:58.074Z,1004.21
2022-07-29T02:55:58.062Z,1004.18
2022-07-29T02:56:58.048Z,1004.13
2022-07-29T02:57:58.042Z,1004.14
2022-07-29T02:58:58.030Z,1004.09
2022-07-29T02:59:58.016Z,1004.08
2022-07-29T03:00:58.010Z,1004.08
2022-07-29T03:01:57.991Z,1004.07
2022-07-29T03:02:57.986Z,1004.03
2022-07-29T03:03:57.974Z,1004.09
2022-07-29T03:04:57.964Z,1004.09
2022-07-29T03:05:57.955Z,1004.11
2022-07-29T03:06:57.938Z,1004.15
2022-07-29T03:07:57.947Z,1004.14
2022-07-29T03:08:57.928Z,1004.18
2022-07-29T03:09:57.914Z,1004.19
2022-07-29T03:10:57.902Z,1004.22
2022-07-29T03:11:57.889Z,1004.18
2022-07-29T03:12:57.879Z,1004.2
2022-07-29T03:13:57.871Z,1004.18
2022-07-29T03:14:57.860Z,1004.23
2022-07-29T03:15:57.857Z,1004.25
2022-07-29T03:16:57.833Z,1004.21
2022-07-29T03:17:57.830Z,1004.22
2022-07-29T03:18:57.829Z,1004.27
2022-07-29T03:19:57.813Z,1004.22
2022-07-29T03:20:57.789Z,1004.21
2022-07-29T03:21:57.792Z,1004.26
2022-07-29T03:22:57.771Z,1004.24
2022-07-29T03:23:57.760Z,1004.21
2022-07-29T03:24:57.756Z,1004.2
2022-07-29T03:25:57.747Z,1004.26
2022-07-29T03:26:57.730Z,1004.29
2022-07-29T03:27:57.733Z,1004.27
2022-07-29T03:28:57.711Z,1004.29
2022-07-29T03:29:57.694Z,1004.28
2022-07-29T03:30:57.693Z,1004.31
2022-07-29T03:31:57.689Z,1004.27
2022-07-29T03:32:57.672Z,1004.28
2022-07-29T03:33:57.670Z,1004.28
2022-07-29T03:34:57.640Z,1004.24
2022-07-29T03:35:57.636Z,1004.22
2022-07-29T03:36:57.630Z,1004.25
2022-07-29T03:37:57.624Z,1004.23
2022-07-29T03:38:57.600Z,1004.22
2022-07-29T03:39:57.603Z,1004.27
2022-07-29T03:40:57.582Z,1004.29
2022-07-29T03:41:57.583Z,1004.34
2022-07-29T03:42:57.583Z,1004.31
2022-07-29T03:43:57.550Z,1004.29
2022-07-29T03:44:57.537Z,1004.3
2022-07-29T03:45:57.544Z,1004.3
2022-07-29T03:46:57.513Z,1004.23
2022-07-29T03:47:57.520Z,1004.28
2022-07-29T03:48:57.500Z,1004.2
2022-07-29T03:49:57.491Z,1004.23
2022-07-29T03:50:57.474Z,1004.22
2022-07-29T03:51:57.470Z,1004.27
2022-07-29T03:52:57.449Z,1004.29
2022-07-29T03:53:57.447Z,1004.27
2022-07-29T03:54:57.459Z,1004.27
2022-07-29T03:55:57.421Z,1004.22
2022-07-29T03:56:57.411Z,1004.25
2022-07-29T03:57:57.402Z,1004.26
2022-07-29T03:58:57.392Z,1004.24
2022-07-29T03:59:57.383Z,1004.24
2022-07-29T04:00:57.371Z,1004.25
2022-07-29T04:01:57.362Z,1004.23
2022-07-29T04:02:57.349Z,1004.2
2022-07-29T04:03:57.337Z,1004.21
2022-07-29T04:04:57.334Z,1004.21
2022-07-29T04:05:57.314Z,1004.25
2022-07-29T04:06:57.311Z,1004.19
2022-07-29T04:07:57.292Z,1004.22
2022-07-29T04:08:57.287Z,1004.21
2022-07-29T04:09:57.276Z,1004.2
2022-07-29T04:10:57.261Z,1004.14
2022-07-29T04:11:57.256Z,1004.14
2022-07-29T04:12:57.253Z,1004.17
2022-07-29T04:13:57.231Z,1004.18
2022-07-29T04:14:57.219Z,1004.12
2022-07-29T04:15:57.221Z,1004.12
2022-07-29T04:16:57.198Z,1004.12
2022-07-29T04:17:57.188Z,1004.12
2022-07-29T04:18:57.185Z,1004.13
2022-07-29T04:19:57.168Z,1004.12
2022-07-29T04:20:57.155Z,1004.13
2022-07-29T04:21:57.147Z,1004.15
2022-07-29T04:22:57.134Z,1004.1
2022-07-29T04:23:57.134Z,1004.14
2022-07-29T04:24:57.113Z,1004.14
2022-07-29T04:25:57.114Z,1004.17
2022-07-29T04:26:57.095Z,1004.16
2022-07-29T04:27:57.104Z,1004.22
2022-07-29T04:28:57.069Z,1004.2
2022-07-29T04:29:57.063Z,1004.26
2022-07-29T04:30:57.057Z,1004.17
2022-07-29T04:31:57.040Z,1004.25
2022-07-29T04:32:57.039Z,1004.25
2022-07-29T04:33:57.021Z,1004.28
2022-07-29T04:34:57.013Z,1004.3
2022-07-29T04:35:56.995Z,1004.27
2022-07-29T04:36:56.998Z,1004.28
2022-07-29T04:37:57.870Z,1004.26
2022-07-29T04:38:56.964Z,1004.26
2022-07-29T04:39:56.957Z,1004.31
2022-07-29T04:40:56.942Z,1004.3
2022-07-29T04:41:56.945Z,1004.33
2022-07-29T04:42:56.930Z,1004.32
2022-07-29T04:43:56.916Z,1004.27
2022-07-29T04:44:56.902Z,1004.28
2022-07-29T04:45:56.904Z,1004.32
2022-07-29T04:46:56.878Z,1004.29
2022-07-29T04:47:56.878Z,1004.29
2022-07-29T04:48:56.859Z,1004.31
2022-07-29T04:49:56.850Z,1004.25
2022-07-29T04:50:56.838Z,1004.26
2022-07-29T04:51:56.836Z,1004.3
2022-07-29T04:52:56.816Z,1004.25
2022-07-29T04:53:56.818Z,1004.25
2022-07-29T04:54:56.797Z,1004.23
2022-07-29T04:55:56.786Z,1004.25
2022-07-29T04:56:56.771Z,1004.27
2022-07-29T04:57:56.782Z,1004.21
2022-07-29T04:58:56.761Z,1004.21
2022-07-29T04:59:56.741Z,1004.24
2022-07-29T05:00:56.734Z,1004.19
2022-07-29T05:01:56.729Z,1004.26
2022-07-29T05:02:56.716Z,1004.28
2022-07-29T05:03:56.773Z,1004.24
2022-07-29T05:04:56.699Z,1004.24
2022-07-29T05:05:56.692Z,1004.24
2022-07-29T05:06:56.671Z,1004.23
2022-07-29T05:07:56.658Z,1004.22
2022-07-29T05:08:56.661Z,1004.22
2022-07-29T05:09:56.641Z,1004.2
2022-07-29T05:10:56.629Z,1004.26
2022-07-29T05:11:56.622Z,1004.22
2022-07-29T05:12:56.604Z,1004.24
2022-07-29T05:13:56.611Z,1004.23
2022-07-29T05:14:56.588Z,1004.23
2022-07-29T05:15:56.574Z,1004.26
2022-07-29T05:16:56.561Z,1004.26
2022-07-29T05:17:56.553Z,1004.29
2022-07-29T05:18:56.542Z,1004.23
2022-07-29T05:19:56.538Z,1004.28
2022-07-29T05:20:56.527Z,1004.26
2022-07-29T05:21:56.508Z,1004.32
2022-07-29T05:22:56.500Z,1004.33
2022-07-29T05:23:56.496Z,1004.29
2022-07-29T05:24:56.480Z,1004.29
2022-07-29T05:25:56.468Z,1004.36
2022-07-29T05:26:56.453Z,1004.33
2022-07-29T05:27:56.442Z,1004.33
2022-07-29T05:28:56.436Z,1004.34
2022-07-29T05:29:56.428Z,1004.35
2022-07-29T05:30:56.414Z,1004.27
2022-07-29T05:31:56.406Z,1004.36
2022-07-29T05:32:56.404Z,1004.3
2022-07-29T05:33:56.405Z,1004.31
2022-07-29T05:34:56.380Z,1004.29
2022-07-29T05:35:56.366Z,1004.27
2022-07-29T05:36:56.381Z,1004.25
2022-07-29T05:37:56.337Z,1004.19
2022-07-29T05:38:56.328Z,1004.24
2022-07-29T05:39:56.320Z,1004.24
2022-07-29T05:40:56.316Z,1004.22
2022-07-29T05:41:56.302Z,1004.17
2022-07-29T05:42:56.288Z,1004.13
2022-07-29T05:43:56.275Z,1004.15
2022-07-29T05:44:56.287Z,1004.11
2022-07-29T05:45:56.256Z,1004.05
2022-07-29T05:46:56.248Z,1004.12
2022-07-29T05:47:56.239Z,1004.08
2022-07-29T05:48:56.222Z,1004.11
2022-07-29T05:49:56.213Z,1004.15
2022-07-29T05:50:56.201Z,1004.08
2022-07-29T05:51:56.191Z,1004.08
2022-07-29T05:52:56.185Z,1004.07
2022-07-29T05:53:56.169Z,1004.15
2022-07-29T05:54:56.163Z,1004.19
2022-07-29T05:55:56.150Z,1004.23
2022-07-29T05:56:56.137Z,1004.25
2022-07-29T05:57:56.125Z,1004.3
2022-07-29T05:58:56.118Z,1004.24
2022-07-29T05:59:56.103Z,1004.25
2022-07-29T06:00:56.102Z,1004.18
2022-07-29T06:01:56.092Z,1004.21
2022-07-29T06:02:56.071Z,1004.21
2022-07-29T06:03:56.060Z,1004.19
2022-07-29T06:04:56.054Z,1004.18
2022-07-29T06:05:56.045Z,1004.24
2022-07-29T06:06:56.030Z,1004.29
2022-07-29T06:07:56.020Z,1004.27
2022-07-29T06:08:56.017Z,1004.3
2022-07-29T06:09:55.999Z,1004.3
2022-07-29T06:10:56.010Z,1004.31
2022-07-29T06:11:55.978Z,1004.3
2022-07-29T06:12:55.983Z,1004.31
2022-07-29T06:13:55.960Z,1004.31
2022-07-29T06:14:55.943Z,1004.33
2022-07-29T06:15:55.948Z,1004.33
2022-07-29T06:16:55.926Z,1004.32
2022-07-29T06:17:55.913Z,1004.32
2022-07-29T06:18:55.916Z,1004.31
2022-07-29T06:19:55.894Z,1004.38
2022-07-29T06:20:55.892Z,1004.33
2022-07-29T06:21:55.878Z,1004.31
2022-07-29T06:22:55.890Z,1004.31
2022-07-29T06:23:55.854Z,1004.3
2022-07-29T06:24:55.844Z,1004.3
2022-07-29T06:25:55.832Z,1004.27
2022-07-29T06:26:55.832Z,1004.24
2022-07-29T06:27:55.806Z,1004.25
2022-07-29T06:28:55.810Z,1004.26
2022-07-29T06:29:55.804Z,1004.32
2022-07-29T06:30:55.774Z,1004.29
2022-07-29T06:31:55.796Z,1004.29
2022-07-29T06:32:55.756Z,1004.31
2022-07-29T06:33:55.757Z,1004.3
2022-07-29T06:34:55.751Z,1004.33
2022-07-29T06:35:55.744Z,1004.29
2022-07-29T06:36:55.712Z,1004.3
2022-07-29T06:37:55.704Z,1004.27
2022-07-29T06:38:55.698Z,1004.31
2022-07-29T06:39:55.684Z,1004.32
2022-07-29T06:40:55.678Z,1004.32
2022-07-29T06:41:55.658Z,1004.26
2022-07-29T06:42:55.674Z,1004.26
2022-07-29T06:43:55.664Z,1004.29
2022-07-29T06:44:55.636Z,1004.29
2022-07-29T06:45:55.632Z,1004.25
2022-07-29T06:46:55.624Z,1004.29
2022-07-29T06:47:55.598Z,1004.27
2022-07-29T06:48:55.584Z,1004.22
2022-07-29T06:49:56.386Z,1004.29
2022-07-29T06:50:55.564Z,1004.23
2022-07-29T06:51:56.386Z,1004.27
2022-07-29T06:52:55.564Z,1004.28
2022-07-29T06:53:55.536Z,1004.32
2022-07-29T06:54:55.522Z,1004.27
2022-07-29T06:55:55.517Z,1004.27
2022-07-29T06:56:55.509Z,1004.26
2022-07-29T06:57:55.499Z,1004.24
2022-07-29T06:58:55.500Z,1004.26
2022-07-29T06:59:55.471Z,1004.27
2022-07-29T07:00:55.466Z,1004.26
2022-07-29T07:01:55.450Z,1004.28
2022-07-29T07:02:55.436Z,1004.27
2022-07-29T07:03:55.427Z,1004.34
2022-07-29T07:04:55.429Z,1004.29
2022-07-29T07:05:55.409Z,1004.31
2022-07-29T07:06:55.400Z,1004.28
2022-07-29T07:07:55.456Z,1004.28
2022-07-29T07:08:55.383Z,1004.32
2022-07-29T07:09:55.364Z,1004.34
2022-07-29T07:10:55.364Z,1004.32
2022-07-29T07:11:55.344Z,1004.35
2022-07-29T07:12:55.370Z,1004.34
2022-07-29T07:13:55.324Z,1004.3
2022-07-29T07:14:55.314Z,1004.37
2022-07-29T07:15:55.302Z,1004.34
2022-07-29T07:16:55.309Z,1004.37
2022-07-29T07:17:55.279Z,1004.34
2022-07-29T07:18:55.276Z,1004.37
2022-07-29T07:19:55.271Z,1004.39
2022-07-29T07:20:55.250Z,1004.35
2022-07-29T07:21:55.239Z,1004.39
2022-07-29T07:22:55.264Z,1004.38
2022-07-29T07:23:55.213Z,1004.33
2022-07-29T07:24:55.209Z,1004.33
2022-07-29T07:25:55.197Z,1004.35
2022-07-29T07:26:55.195Z,1004.33
2022-07-29T07:27:55.178Z,1004.29
2022-07-29T07:28:55.164Z,1004.27
2022-07-29T07:29:55.158Z,1004.31
2022-07-29T07:30:55.142Z,1004.28
2022-07-29T07:31:55.133Z,1004.36
2022-07-29T07:32:55.122Z,1004.33
2022-07-29T07:33:55.115Z,1004.31
2022-07-29T07:34:55.149Z,1004.29
2022-07-29T07:35:55.090Z,1004.25
2022-07-29T07:36:55.081Z,1004.29
2022-07-29T07:37:55.071Z,1004.25
2022-07-29T07:38:55.058Z,1004.23
2022-07-29T07:39:55.052Z,1004.27
2022-07-29T07:40:55.039Z,1004.28
2022-07-29T07:41:55.035Z,1004.28
2022-07-29T07:42:55.035Z,1004.31
2022-07-29T07:43:55.007Z,1004.28
2022-07-29T07:44:55.003Z,1004.32
2022-07-29T07:45:54.991Z,1004.32
2022-07-29T07:46:54.989Z,1004.36
2022-07-29T07:47:54.966Z,1004.33
2022-07-29T07:48:54.965Z,1004.34
2022-07-29T07:49:54.942Z,1004.42
2022-07-29T07:50:54.937Z,1004.35
2022-07-29T07:51:54.935Z,1004.39
2022-07-29T07:52:54.915Z,1004.45
2022-07-29T07:53:54.910Z,1004.43
2022-07-29T07:54:54.894Z,1004.36
2022-07-29T07:55:54.891Z,1004.36
2022-07-29T07:56:54.870Z,1004.46
2022-07-29T07:57:54.874Z,1004.41
2022-07-29T07:58:54.896Z,1004.43
2022-07-29T07:59:54.843Z,1004.42
2022-07-29T08:00:54.830Z,1004.49
2022-07-29T08:01:54.820Z,1004.49
2022-07-29T08:02:54.811Z,1004.47
2022-07-29T08:03:54.831Z,1004.44
2022-07-29T08:04:54.784Z,1004.43
2022-07-29T08:05:54.775Z,1004.41
2022-07-29T08:06:54.761Z,1004.43
2022-07-29T08:07:54.751Z,1004.45
2022-07-29T08:08:54.740Z,1004.41
2022-07-29T08:09:54.754Z,1004.46
2022-07-29T08:10:54.746Z,1004.53
2022-07-29T08:11:54.712Z,1004.45
2022-07-29T08:12:54.691Z,1004.43
2022-07-29T08:13:54.705Z,1004.43
2022-07-29T08:14:54.682Z,1004.38
2022-07-29T08:15:54.660Z,1004.43
2022-07-29T08:16:54.655Z,1004.48
2022-07-29T08:17:54.645Z,1004.44
2022-07-29T08:18:54.633Z,1004.52
2022-07-29T08:19:54.666Z,1004.5
2022-07-29T08:20:54.632Z,1004.55
2022-07-29T08:21:55.417Z,1004.57
2022-07-29T08:22:54.621Z,1004.57
2022-07-29T08:23:54.587Z,1004.56
2022-07-29T08:24:54.577Z,1004.58
2022-07-29T08:25:54.572Z,1004.55
2022-07-29T08:26:54.552Z,1004.6
2022-07-29T08:27:54.567Z,1004.62
2022-07-29T08:28:54.526Z,1004.67
2022-07-29T08:29:54.527Z,1004.67
2022-07-29T08:30:54.510Z,1004.6
2022-07-29T08:31:54.499Z,1004.65
2022-07-29T08:32:54.488Z,1004.61
2022-07-29T08:33:54.473Z,1004.64
2022-07-29T08:34:54.472Z,1004.69
2022-07-29T08:35:54.546Z,1004.56
2022-07-29T08:36:54.452Z,1004.56
2022-07-29T08:37:54.435Z,1004.59
2022-07-29T08:38:54.425Z,1004.51
2022-07-29T08:39:54.420Z,1004.53
2022-07-29T08:40:54.400Z,1004.55
2022-07-29T08:41:54.391Z,1004.57
2022-07-29T08:42:54.381Z,1004.57
2022-07-29T08:43:54.370Z,1004.58
2022-07-29T08:44:54.376Z,1004.58
2022-07-29T08:45:54.365Z,1004.6
2022-07-29T08:46:54.347Z,1004.59
2022-07-29T08:47:54.340Z,1004.61
2022-07-29T08:48:54.341Z,1004.63
2022-07-29T08:49:54.309Z,1004.59
2022-07-29T08:50:54.294Z,1004.67
2022-07-29T08:51:54.291Z,1004.67
2022-07-29T08:52:54.287Z,1004.66
2022-07-29T08:53:54.277Z,1004.67
2022-07-29T08:54:54.270Z,1004.6
2022-07-29T08:55:54.252Z,1004.57
2022-07-29T08:56:54.239Z,1004.59
2022-07-29T08:57:54.224Z,1004.63
2022-07-29T08:58:54.227Z,1004.64
2022-07-29T08:59:54.237Z,1004.69
2022-07-29T09:00:54.224Z,1004.67
2022-07-29T09:01:54.186Z,1004.59
2022-07-29T09:02:54.176Z,1004.68
2022-07-29T09:03:54.204Z,1004.64
2022-07-29T09:04:54.153Z,1004.63
2022-07-29T09:05:54.138Z,1004.59
2022-07-29T09:06:54.132Z,1004.63
2022-07-29T09:07:54.125Z,1004.56
2022-07-29T09:08:54.126Z,1004.57
2022-07-29T09:09:54.104Z,1004.59
2022-07-29T09:10:54.089Z,1004.62
2022-07-29T09:11:54.076Z,1004.57
2022-07-29T09:12:54.078Z,1004.55
2022-07-29T09:13:54.058Z,1004.58
2022-07-29T09:14:54.055Z,1004.54
2022-07-29T09:15:54.888Z,1004.6
2022-07-29T09:16:54.030Z,1004.57
2022-07-29T09:17:54.015Z,1004.56
2022-07-29T09:18:54.003Z,1004.54
2022-07-29T09:19:53.999Z,1004.6
2022-07-29T09:20:54.004Z,1004.57
2022-07-29T09:21:53.993Z,1004.55
2022-07-29T09:22:53.998Z,1004.54
2022-07-29T09:23:54.001Z,1004.55
2022-07-29T09:24:53.940Z,1004.51
2022-07-29T09:25:53.944Z,1004.51
2022-07-29T09:26:54.891Z,1004.48
2022-07-29T09:27:53.933Z,1004.45
2022-07-29T09:28:53.907Z,1004.49
2022-07-29T09:29:53.887Z,1004.5
2022-07-29T09:30:53.882Z,1004.5
2022-07-29T09:32:01.467Z,1004.49
2022-07-29T09:33:01.471Z,1004.44
2022-07-29T09:34:01.408Z,1004.49
2022-07-29T09:35:01.397Z,1004.39
2022-07-29T09:36:01.392Z,1004.41
2022-07-29T09:37:01.377Z,1004.39
2022-07-29T09:37:53.809Z,1004.44
2022-07-29T09:38:53.811Z,1004.4
2022-07-29T09:39:53.793Z,1004.39
2022-07-29T09:40:53.773Z,1004.39
2022-07-29T09:42:01.345Z,1004.36
2022-07-29T09:42:53.747Z,1004.38
2022-07-29T09:44:01.318Z,1004.33
2022-07-29T09:44:53.741Z,1004.34
2022-07-29T09:45:53.727Z,1004.32
2022-07-29T09:46:53.717Z,1004.39
2022-07-29T09:47:53.705Z,1004.32
2022-07-29T09:48:53.685Z,1004.32
2022-07-29T09:49:53.700Z,1004.34
2022-07-29T09:50:53.688Z,1004.26
2022-07-29T09:51:53.677Z,1004.25
2022-07-29T09:52:53.658Z,1004.27
2022-07-29T09:53:53.644Z,1004.3
2022-07-29T09:54:53.632Z,1004.28
2022-07-29T09:55:53.666Z,1004.29
2022-07-29T09:56:53.632Z,1004.31
2022-07-29T09:57:53.593Z,1004.31
2022-07-29T09:58:53.607Z,1004.28
2022-07-29T09:59:53.586Z,1004.28
2022-07-29T10:00:53.561Z,1004.24
2022-07-29T10:01:53.572Z,1004.25
2022-07-29T10:02:54.087Z,1004.25
2022-07-29T10:03:53.536Z,1004.22
2022-07-29T10:04:53.559Z,1004.21
2022-07-29T10:05:53.546Z,1004.25
2022-07-29T10:06:53.512Z,1004.22
2022-07-29T10:07:53.494Z,1004.28
2022-07-29T10:08:53.486Z,1004.31
2022-07-29T10:09:53.481Z,1004.26
2022-07-29T10:10:53.461Z,1004.29
2022-07-29T10:11:53.450Z,1004.33
2022-07-29T10:12:53.471Z,1004.33
2022-07-29T10:13:53.426Z,1004.31
2022-07-29T10:14:53.433Z,1004.31
2022-07-29T10:15:53.418Z,1004.33
2022-07-29T10:16:53.394Z,1004.34
2022-07-29T10:17:53.381Z,1004.34
2022-07-29T10:18:53.378Z,1004.34
2022-07-29T10:19:53.364Z,1004.32
2022-07-29T10:20:53.368Z,1004.35
2022-07-29T10:21:53.365Z,1004.38
2022-07-29T10:22:53.335Z,1004.23
2022-07-29T10:23:53.325Z,1004.26
2022-07-29T10:24:53.314Z,1004.29
2022-07-29T10:25:53.303Z,1004.26
2022-07-29T10:26:53.319Z,1004.24
2022-07-29T10:27:53.293Z,1004.2
2022-07-29T10:28:53.279Z,1004.2
2022-07-29T10:29:53.287Z,1004.22
2022-07-29T10:30:53.249Z,1004.13
2022-07-29T10:31:53.237Z,1004.11
2022-07-29T10:32:53.238Z,1004.15
2022-07-29T10:33:53.253Z,1004.17
2022-07-29T10:34:53.296Z,1004.13
2022-07-29T10:35:53.195Z,1004.14
2022-07-29T10:36:53.188Z,1004.13
2022-07-29T10:37:53.213Z,1004.11
2022-07-29T10:38:53.199Z,1004.16
2022-07-29T10:39:53.159Z,1004.17
2022-07-29T10:40:53.146Z,1004.14
2022-07-29T10:41:53.132Z,1004.2
2022-07-29T10:42:53.143Z,1004.17
2022-07-29T10:43:53.118Z,1004.23
2022-07-29T10:44:53.127Z,1004.16
2022-07-29T10:45:53.094Z,1004.2
2022-07-29T10:46:53.106Z,1004.2
2022-07-29T10:47:53.074Z,1004.19
2022-07-29T10:48:53.109Z,1004.21
2022-07-29T10:49:53.050Z,1004.2
2022-07-29T10:50:53.037Z,1004.22
2022-07-29T10:51:53.056Z,1004.17
2022-07-29T10:52:53.032Z,1004.11
2022-07-29T10:53:53.009Z,1004.11
2022-07-29T10:54:53.018Z,1004.13
2022-07-29T10:55:52.992Z,1004.12
2022-07-29T10:56:52.976Z,1004.14
2022-07-29T10:57:53.070Z,1004.16
2022-07-29T10:58:52.951Z,1004.17
2022-07-29T10:59:52.943Z,1004.19
2022-07-29T11:00:52.959Z,1004.14
2022-07-29T11:01:52.932Z,1004.15
2022-07-29T11:02:52.957Z,1004.22
2022-07-29T11:03:52.904Z,1004.23
2022-07-29T11:04:52.896Z,1004.21
2022-07-29T11:05:52.882Z,1004.18
2022-07-29T11:06:52.877Z,1004.21
2022-07-29T11:07:52.869Z,1004.21
2022-07-29T11:08:52.892Z,1004.2
2022-07-29T11:09:52.841Z,1004.24
2022-07-29T11:10:52.844Z,1004.35
2022-07-29T11:11:52.821Z,1004.27
2022-07-29T11:12:52.815Z,1004.28
2022-07-29T11:13:52.802Z,1004.27
2022-07-29T11:14:52.805Z,1004.32
2022-07-29T11:15:52.784Z,1004.3
2022-07-29T11:16:52.775Z,1004.29
2022-07-29T11:17:52.756Z,1004.29
2022-07-29T11:18:53.592Z,1004.3
2022-07-29T11:19:52.738Z,1004.32
2022-07-29T11:20:52.724Z,1004.31
2022-07-29T11:21:52.733Z,1004.34
2022-07-29T11:22:52.722Z,1004.29
2022-07-29T11:23:52.694Z,1004.36
2022-07-29T11:24:52.687Z,1004.33
2022-07-29T11:25:52.691Z,1004.33
2022-07-29T11:26:52.663Z,1004.35
2022-07-29T11:27:52.674Z,1004.36
2022-07-29T11:28:52.644Z,1004.31
2022-07-29T11:29:52.632Z,1004.34
2022-07-29T11:30:52.637Z,1004.4
2022-07-29T11:31:52.612Z,1004.38
2022-07-29T11:32:52.613Z,1004.4
2022-07-29T11:33:52.590Z,1004.4
2022-07-29T11:34:52.575Z,1004.39
2022-07-29T11:35:52.615Z,1004.35
2022-07-29T11:36:52.558Z,1004.32
2022-07-29T11:37:52.555Z,1004.33
2022-07-29T11:38:52.542Z,1004.29
2022-07-29T11:39:52.531Z,1004.29
2022-07-29T11:40:52.526Z,1004.33
2022-07-29T11:41:52.513Z,1004.33
2022-07-29T11:42:52.493Z,1004.33
2022-07-29T11:43:52.491Z,1004.34
2022-07-29T11:44:52.512Z,1004.34
2022-07-29T11:45:52.613Z,1004.37
2022-07-29T11:46:52.467Z,1004.3
2022-07-29T11:47:52.449Z,1004.26
2022-07-29T11:48:52.441Z,1004.24
2022-07-29T11:49:52.498Z,1004.31
2022-07-29T11:50:52.426Z,1004.32
2022-07-29T11:51:52.399Z,1004.31
2022-07-29T11:52:52.404Z,1004.27
2022-07-29T11:53:52.380Z,1004.27
2022-07-29T11:54:52.377Z,1004.26
2022-07-29T11:55:52.371Z,1004.27
2022-07-29T11:56:52.404Z,1004.25
2022-07-29T11:57:52.339Z,1004.2
2022-07-29T11:58:52.343Z,1004.21
2022-07-29T11:59:52.334Z,1004.23
2022-07-29T12:00:52.322Z,1004.18
2022-07-29T12:01:52.332Z,1004.21
2022-07-29T12:02:53.094Z,1004.22
2022-07-29T12:03:52.271Z,1004.25
2022-07-29T12:04:52.269Z,1004.21
2022-07-29T12:05:52.255Z,1004.22
2022-07-29T12:06:52.256Z,1004.17
2022-07-29T12:07:52.238Z,1004.17